Rapports METAR des aéroports proches

 

LFSI - St. Dizier/Robin, France
Distance from station: SO 26km
Mise à jour: 17/01/2019 11:30
couvert
couvert
 Wind from OSO
Vent: OSO 30 km/h
Température: 6°C
Wind Chill: 2°C
Point de rosée: 2°C
Humidité: 76%
Baromètre: 1009 hPa
Clouds: couvert
Visibility: 10 km
Cloud details: nuageux 549 m
couvert 823 m
2019/01/17 10:30 LFSI 171030Z AUTO 25016KT 9999 BKN018 OVC027 06/02 Q1009
LFSO - Nancy/Ochey (faf, France
Distance from station: ESE 62km
Mise à jour: 17/01/2019 11:30
pluie légère, Thunderstorm
pluie légère, Thunderstorm
 Wind from OSO
Vent: OSO 33 km/h
Température: 5°C
Wind Chill: 0°C
Point de rosée: 3°C
Humidité: 87%
Baromètre: 1008 hPa
Résumé: pluie légère
Clouds: Thunderstorm
Visibility: 10 km
Cloud details: nuageux 579 m
nuageux 732 m
couvert 1067 m
2019/01/17 10:30 LFSO 171030Z AUTO 24018KT 220V280 9999 -RA BKN019/// BKN024/// OVC035/// ///TCU 05/03 Q1008 TEMPO 27020G35KT 4500 -SHRA BKN007 BKN010TCU OVC015
 
LFOK - Chalons/Vatry Fa, France
Distance from station: O 73km
Mise à jour: 17/01/2019 11:30
couvert
couvert
 Wind from OSO
Vent: OSO 35 km/h
Température: 5°C
Wind Chill: -1°C
Point de rosée: 4°C
Humidité: 93%
Baromètre: 1009 hPa
Clouds: couvert
Visibility: 10 km
Cloud details: nuageux 518 m
nuageux 732 m
couvert 945 m
2019/01/17 10:30 LFOK 171030Z AUTO 24019KT 9999 BKN017 BKN024 OVC031 05/04 Q1009 TEMPO VRB20G30KT 3000 SHRA BKN008 BKN016TCU
LFSN - Nancy/Essey, France
Distance from station: E 77km
Mise à jour: 17/01/2019 11:30
pluie légère, Thunderstorm
pluie légère, Thunderstorm
 Wind from OSO
Vent: OSO 20 km/h
Température: 7°C
Wind Chill: 4°C
Point de rosée: 3°C
Humidité: 76%
Baromètre: 1008 hPa
Résumé: pluie légère
Clouds: Thunderstorm
Visibility: 10 km
Cloud details: nuageux 792 m
couvert 1036 m
2019/01/17 10:30 LFSN 171030Z AUTO 25011KT 210V290 9999 -RA BKN026/// OVC034/// ///TCU 07/03 Q1008
 
LFJL - Metz-Nancy-Lorra, France
Distance from station: ENE 82km
Mise à jour: 17/01/2019 11:30
nuageux
nuageux
 Wind from OSO
Vent: OSO 33 km/h
Température: 5°C
Wind Chill: 0°C
Point de rosée: 3°C
Humidité: 87%
Baromètre: 1007 hPa
Clouds: nuageux
Visibility: 10 km
Cloud details: nuageux 457 m
nuageux 1036 m
nuageux 1219 m
2019/01/17 10:30 LFJL 171030Z AUTO 24018KT 9999 BKN015 BKN034 BKN040 05/03 Q1007 TEMPO 4000 SHRA BKN013TCU BECMG 25018G30KT
LFQA - Reims/Prunay, France
Distance from station: ONO 89km
Mise à jour: 17/01/2019 11:30
couvert
couvert
 Wind from OSO
Vent: OSO 24 km/h
Température: 6°C
Wind Chill: 2°C
Point de rosée: 3°C
Humidité: 81%
Baromètre: 1007 hPa
Clouds: couvert
Visibility: 10 km
Cloud details: partiellement nuageux 610 m
couvert 792 m
2019/01/17 10:30 LFQA 171030Z AUTO 25013KT 9999 SCT020 OVC026 06/03 Q1007
 
LFQB - Troyes/Barberey, France
Distance from station: OSO 99km
Mise à jour: 17/01/2019 11:30
couvert
couvert
 Wind from OSO
Vent: OSO 31 km/h
Température: 6°C
Wind Chill: 1°C
Point de rosée: 3°C
Humidité: 81%
Baromètre: 1010 hPa
Clouds: couvert
Visibility: 10 km
Cloud details: nuageux 701 m
couvert 853 m
2019/01/17 10:30 LFQB 171030Z AUTO 25017KT 9999 BKN023 OVC028 06/03 Q1010
ELLX - Luxembourg (aut), Luxembourg
Distance from station: NE 122km
Mise à jour: 17/01/2019 11:50
nuageux
nuageux
 Wind from OSO
Vent: OSO 30 km/h
Température: 4°C
Wind Chill: -1°C
Point de rosée: 2°C
Humidité: 87%
Baromètre: 1005 hPa
Clouds: nuageux
Visibility: 10 km
Cloud details: Few Clouds 244 m
nuageux 366 m
2019/01/17 10:50 ELLX 171050Z 24016KT 9999 FEW008 BKN012 04/02 Q1005 NOSIG